sensor_id;sensor_type;location;lat;lon;timestamp;temperature;humidity
63094;DHT22;49183;51.380;0.098;2022-10-16T00:01:19;8.90;83.90
63094;DHT22;49183;51.380;0.098;2022-10-16T00:03:47;8.80;84.10
63094;DHT22;49183;51.380;0.098;2022-10-16T00:06:15;8.80;84.10
63094;DHT22;49183;51.380;0.098;2022-10-16T00:08:43;8.80;84.50
63094;DHT22;49183;51.380;0.098;2022-10-16T00:11:12;8.80;84.60
63094;DHT22;49183;51.380;0.098;2022-10-16T00:13:41;8.80;84.70
63094;DHT22;49183;51.380;0.098;2022-10-16T00:16:10;8.80;84.80
63094;DHT22;49183;51.380;0.098;2022-10-16T00:18:37;8.80;84.80
63094;DHT22;49183;51.380;0.098;2022-10-16T00:21:06;8.80;84.80
63094;DHT22;49183;51.380;0.098;2022-10-16T00:23:53;8.80;84.80
63094;DHT22;49183;51.380;0.098;2022-10-16T00:26:21;8.80;84.90
63094;DHT22;49183;51.380;0.098;2022-10-16T00:28:49;8.80;85.00
63094;DHT22;49183;51.380;0.098;2022-10-16T00:31:17;8.80;85.00
63094;DHT22;49183;51.380;0.098;2022-10-16T00:33:45;8.70;85.10
63094;DHT22;49183;51.380;0.098;2022-10-16T00:36:13;8.70;85.10
63094;DHT22;49183;51.380;0.098;2022-10-16T00:38:41;8.60;85.20
63094;DHT22;49183;51.380;0.098;2022-10-16T00:41:10;8.60;85.20
63094;DHT22;49183;51.380;0.098;2022-10-16T00:46:16;8.70;85.20
63094;DHT22;49183;51.380;0.098;2022-10-16T00:48:46;8.80;84.90
63094;DHT22;49183;51.380;0.098;2022-10-16T00:51:18;8.90;84.60
63094;DHT22;49183;51.380;0.098;2022-10-16T00:53:46;9.00;84.20
63094;DHT22;49183;51.380;0.098;2022-10-16T00:56:14;9.20;83.10
63094;DHT22;49183;51.380;0.098;2022-10-16T00:58:41;9.30;82.40
63094;DHT22;49183;51.380;0.098;2022-10-16T01:01:09;9.50;81.40
63094;DHT22;49183;51.380;0.098;2022-10-16T01:03:36;9.60;80.50
63094;DHT22;49183;51.380;0.098;2022-10-16T01:06:19;9.80;80.00
63094;DHT22;49183;51.380;0.098;2022-10-16T01:08:58;9.80;79.60
63094;DHT22;49183;51.380;0.098;2022-10-16T01:11:36;9.90;79.40
63094;DHT22;49183;51.380;0.098;2022-10-16T01:14:07;9.90;79.10
63094;DHT22;49183;51.380;0.098;2022-10-16T01:16:40;10.00;78.90
63094;DHT22;49183;51.380;0.098;2022-10-16T01:21:39;10.10;77.90
63094;DHT22;49183;51.380;0.098;2022-10-16T01:32:01;10.00;78.00
63094;DHT22;49183;51.380;0.098;2022-10-16T01:34:33;9.90;78.20
63094;DHT22;49183;51.380;0.098;2022-10-16T01:37:04;9.90;78.40
63094;DHT22;49183;51.380;0.098;2022-10-16T01:39:33;9.90;78.70
63094;DHT22;49183;51.380;0.098;2022-10-16T01:42:09;9.90;79.10
63094;DHT22;49183;51.380;0.098;2022-10-16T01:44:38;9.80;79.50
63094;DHT22;49183;51.380;0.098;2022-10-16T01:47:07;9.80;79.80
63094;DHT22;49183;51.380;0.098;2022-10-16T01:49:36;9.80;80.00
63094;DHT22;49183;51.380;0.098;2022-10-16T01:52:06;9.70;80.20
63094;DHT22;49183;51.380;0.098;2022-10-16T01:54:35;9.60;80.30
63094;DHT22;49183;51.380;0.098;2022-10-16T01:57:04;9.60;80.50
63094;DHT22;49183;51.380;0.098;2022-10-16T01:59:38;9.50;80.70
63094;DHT22;49183;51.380;0.098;2022-10-16T02:02:07;9.50;80.90
63094;DHT22;49183;51.380;0.098;2022-10-16T02:04:38;9.50;81.10
63094;DHT22;49183;51.380;0.098;2022-10-16T02:07:06;9.40;81.20
63094;DHT22;49183;51.380;0.098;2022-10-16T02:09:34;9.40;81.20
63094;DHT22;49183;51.380;0.098;2022-10-16T02:12:04;9.30;81.20
63094;DHT22;49183;51.380;0.098;2022-10-16T02:14:33;9.30;81.40
63094;DHT22;49183;51.380;0.098;2022-10-16T02:17:01;9.30;81.60
63094;DHT22;49183;51.380;0.098;2022-10-16T02:19:28;9.20;81.80
63094;DHT22;49183;51.380;0.098;2022-10-16T02:21:57;9.20;82.00
63094;DHT22;49183;51.380;0.098;2022-10-16T02:26:55;9.10;82.20
63094;DHT22;49183;51.380;0.098;2022-10-16T02:29:25;9.00;82.40
63094;DHT22;49183;51.380;0.098;2022-10-16T02:31:55;9.00;82.50
63094;DHT22;49183;51.380;0.098;2022-10-16T02:34:23;8.90;82.70
63094;DHT22;49183;51.380;0.098;2022-10-16T02:36:52;8.80;82.90
63094;DHT22;49183;51.380;0.098;2022-10-16T02:39:20;8.80;83.00
63094;DHT22;49183;51.380;0.098;2022-10-16T02:41:47;8.80;83.10
63094;DHT22;49183;51.380;0.098;2022-10-16T02:44:15;8.80;83.30
63094;DHT22;49183;51.380;0.098;2022-10-16T02:46:42;8.80;83.50
63094;DHT22;49183;51.380;0.098;2022-10-16T02:49:10;8.80;83.60
63094;DHT22;49183;51.380;0.098;2022-10-16T02:51:37;8.70;83.70
63094;DHT22;49183;51.380;0.098;2022-10-16T02:54:05;8.70;83.90
63094;DHT22;49183;51.380;0.098;2022-10-16T02:56:33;8.70;84.00
63094;DHT22;49183;51.380;0.098;2022-10-16T02:59:00;8.70;84.00
63094;DHT22;49183;51.380;0.098;2022-10-16T03:01:27;8.60;84.20
63094;DHT22;49183;51.380;0.098;2022-10-16T03:03:55;8.60;84.40
63094;DHT22;49183;51.380;0.098;2022-10-16T03:06:22;8.60;84.40
63094;DHT22;49183;51.380;0.098;2022-10-16T03:08:50;8.50;84.50
63094;DHT22;49183;51.380;0.098;2022-10-16T03:11:18;8.50;84.70
63094;DHT22;49183;51.380;0.098;2022-10-16T03:13:45;8.40;84.70
63094;DHT22;49183;51.380;0.098;2022-10-16T03:16:12;8.40;85.00
63094;DHT22;49183;51.380;0.098;2022-10-16T03:18:40;8.40;85.10
63094;DHT22;49183;51.380;0.098;2022-10-16T03:21:07;8.40;85.20
63094;DHT22;49183;51.380;0.098;2022-10-16T03:23:35;8.30;85.30
63094;DHT22;49183;51.380;0.098;2022-10-16T03:26:02;8.30;85.40
63094;DHT22;49183;51.380;0.098;2022-10-16T03:28:30;8.20;85.50
63094;DHT22;49183;51.380;0.098;2022-10-16T03:30:57;8.20;85.60
63094;DHT22;49183;51.380;0.098;2022-10-16T03:33:25;8.20;85.60
63094;DHT22;49183;51.380;0.098;2022-10-16T03:35:53;8.10;85.70
63094;DHT22;49183;51.380;0.098;2022-10-16T03:38:20;8.00;85.80
63094;DHT22;49183;51.380;0.098;2022-10-16T03:40:48;8.00;86.00
63094;DHT22;49183;51.380;0.098;2022-10-16T03:43:15;7.90;86.10
63094;DHT22;49183;51.380;0.098;2022-10-16T03:45:43;7.90;86.10
63094;DHT22;49183;51.380;0.098;2022-10-16T03:48:10;7.80;86.30
63094;DHT22;49183;51.380;0.098;2022-10-16T03:50:38;7.80;86.30
63094;DHT22;49183;51.380;0.098;2022-10-16T03:53:05;7.80;86.50
63094;DHT22;49183;51.380;0.098;2022-10-16T03:55:33;7.80;86.70
63094;DHT22;49183;51.380;0.098;2022-10-16T03:58:00;7.70;86.80
63094;DHT22;49183;51.380;0.098;2022-10-16T04:00:28;7.70;86.90
63094;DHT22;49183;51.380;0.098;2022-10-16T04:02:56;7.80;87.00
63094;DHT22;49183;51.380;0.098;2022-10-16T04:05:23;7.80;87.00
63094;DHT22;49183;51.380;0.098;2022-10-16T04:07:50;7.80;86.90
63094;DHT22;49183;51.380;0.098;2022-10-16T04:10:18;7.70;86.90
63094;DHT22;49183;51.380;0.098;2022-10-16T04:12:46;7.60;87.00
63094;DHT22;49183;51.380;0.098;2022-10-16T04:15:13;7.60;87.00
63094;DHT22;49183;51.380;0.098;2022-10-16T04:17:41;7.60;87.00
63094;DHT22;49183;51.380;0.098;2022-10-16T04:20:08;7.60;87.00
63094;DHT22;49183;51.380;0.098;2022-10-16T04:22:36;7.50;87.00
63094;DHT22;49183;51.380;0.098;2022-10-16T04:25:03;7.40;87.10
63094;DHT22;49183;51.380;0.098;2022-10-16T04:27:31;7.30;87.20
63094;DHT22;49183;51.380;0.098;2022-10-16T04:29:59;7.30;87.20
63094;DHT22;49183;51.380;0.098;2022-10-16T04:32:26;7.30;87.30
63094;DHT22;49183;51.380;0.098;2022-10-16T04:34:54;7.20;87.40
63094;DHT22;49183;51.380;0.098;2022-10-16T04:37:25;7.20;87.60
63094;DHT22;49183;51.380;0.098;2022-10-16T04:39:54;7.20;87.60
63094;DHT22;49183;51.380;0.098;2022-10-16T04:42:21;7.20;87.60
63094;DHT22;49183;51.380;0.098;2022-10-16T04:44:49;7.20;87.70
63094;DHT22;49183;51.380;0.098;2022-10-16T04:47:16;7.10;87.80
63094;DHT22;49183;51.380;0.098;2022-10-16T04:49:45;7.10;87.70
63094;DHT22;49183;51.380;0.098;2022-10-16T04:52:12;7.10;87.70
63094;DHT22;49183;51.380;0.098;2022-10-16T04:54:41;7.00;87.70
63094;DHT22;49183;51.380;0.098;2022-10-16T05:17:41;7.00;88.10
63094;DHT22;49183;51.380;0.098;2022-10-16T05:20:18;7.00;88.00
63094;DHT22;49183;51.380;0.098;2022-10-16T05:22:50;7.00;87.90
63094;DHT22;49183;51.380;0.098;2022-10-16T05:25:18;7.00;87.90
63094;DHT22;49183;51.380;0.098;2022-10-16T05:27:49;7.00;88.00
63094;DHT22;49183;51.380;0.098;2022-10-16T05:37:01;6.90;88.00
63094;DHT22;49183;51.380;0.098;2022-10-16T06:00:21;7.00;88.20
63094;DHT22;49183;51.380;0.098;2022-10-16T07:53:16;6.40;89.30
63094;DHT22;49183;51.380;0.098;2022-10-16T07:55:46;6.50;89.20
63094;DHT22;49183;51.380;0.098;2022-10-16T07:58:14;6.60;89.10
63094;DHT22;49183;51.380;0.098;2022-10-16T08:00:42;6.70;89.00
63094;DHT22;49183;51.380;0.098;2022-10-16T08:03:09;6.70;88.90
63094;DHT22;49183;51.380;0.098;2022-10-16T08:05:37;6.80;88.80
63094;DHT22;49183;51.380;0.098;2022-10-16T08:08:04;6.80;88.70
63094;DHT22;49183;51.380;0.098;2022-10-16T08:10:31;7.00;88.70
63094;DHT22;49183;51.380;0.098;2022-10-16T08:12:59;7.10;88.60
63094;DHT22;49183;51.380;0.098;2022-10-16T08:15:26;7.10;88.50
63094;DHT22;49183;51.380;0.098;2022-10-16T08:17:58;7.30;88.40
63094;DHT22;49183;51.380;0.098;2022-10-16T08:20:26;7.40;88.30
63094;DHT22;49183;51.380;0.098;2022-10-16T08:22:54;7.50;88.20
63094;DHT22;49183;51.380;0.098;2022-10-16T08:25:22;7.60;88.10
63094;DHT22;49183;51.380;0.098;2022-10-16T08:27:50;7.70;88.00
63094;DHT22;49183;51.380;0.098;2022-10-16T08:30:18;7.80;87.90
63094;DHT22;49183;51.380;0.098;2022-10-16T08:32:46;8.00;87.70
63094;DHT22;49183;51.380;0.098;2022-10-16T08:35:13;8.20;87.50
63094;DHT22;49183;51.380;0.098;2022-10-16T08:37:42;8.30;87.30
63094;DHT22;49183;51.380;0.098;2022-10-16T08:40:20;8.40;87.10
63094;DHT22;49183;51.380;0.098;2022-10-16T08:42:58;8.60;86.90
63094;DHT22;49183;51.380;0.098;2022-10-16T08:45:33;8.80;86.60
63094;DHT22;49183;51.380;0.098;2022-10-16T08:50:30;9.20;86.00
63094;DHT22;49183;51.380;0.098;2022-10-16T08:52:58;9.30;85.70
63094;DHT22;49183;51.380;0.098;2022-10-16T08:57:56;9.50;85.10
63094;DHT22;49183;51.380;0.098;2022-10-16T09:00:24;9.60;84.90
63094;DHT22;49183;51.380;0.098;2022-10-16T09:02:53;9.70;84.90
63094;DHT22;49183;51.380;0.098;2022-10-16T09:13:23;10.10;84.30
63094;DHT22;49183;51.380;0.098;2022-10-16T09:16:14;10.20;84.10
63094;DHT22;49183;51.380;0.098;2022-10-16T09:21:25;10.30;83.80
63094;DHT22;49183;51.380;0.098;2022-10-16T09:23:54;10.40;83.50
63094;DHT22;49183;51.380;0.098;2022-10-16T09:26:24;10.50;83.50
63094;DHT22;49183;51.380;0.098;2022-10-16T09:28:52;10.50;83.50
63094;DHT22;49183;51.380;0.098;2022-10-16T09:31:20;10.70;83.40
63094;DHT22;49183;51.380;0.098;2022-10-16T09:33:50;10.80;83.30
63094;DHT22;49183;51.380;0.098;2022-10-16T09:36:20;10.80;83.00
63094;DHT22;49183;51.380;0.098;2022-10-16T09:38:47;11.00;82.70
63094;DHT22;49183;51.380;0.098;2022-10-16T09:41:20;11.10;82.20
63094;DHT22;49183;51.380;0.098;2022-10-16T09:43:49;11.20;82.00
63094;DHT22;49183;51.380;0.098;2022-10-16T09:48:50;11.50;81.30
63094;DHT22;49183;51.380;0.098;2022-10-16T09:51:18;11.60;81.10
63094;DHT22;49183;51.380;0.098;2022-10-16T09:53:47;11.80;80.30
63094;DHT22;49183;51.380;0.098;2022-10-16T09:56:22;11.80;79.70
63094;DHT22;49183;51.380;0.098;2022-10-16T09:58:54;11.90;79.40
63094;DHT22;49183;51.380;0.098;2022-10-16T10:01:24;12.00;79.40
63094;DHT22;49183;51.380;0.098;2022-10-16T10:03:55;12.10;78.80
63094;DHT22;49183;51.380;0.098;2022-10-16T10:06:31;12.20;78.80
63094;DHT22;49183;51.380;0.098;2022-10-16T10:09:05;12.20;78.00
63094;DHT22;49183;51.380;0.098;2022-10-16T10:12:16;12.20;78.10
63094;DHT22;49183;51.380;0.098;2022-10-16T10:14:28;12.30;77.70
63094;DHT22;49183;51.380;0.098;2022-10-16T10:19:43;12.40;77.10
63094;DHT22;49183;51.380;0.098;2022-10-16T10:27:25;12.80;76.60
63094;DHT22;49183;51.380;0.098;2022-10-16T10:29:59;12.90;75.50
63094;DHT22;49183;51.380;0.098;2022-10-16T10:32:34;12.90;73.90
63094;DHT22;49183;51.380;0.098;2022-10-16T10:36:10;12.90;73.20
63094;DHT22;49183;51.380;0.098;2022-10-16T10:38:46;12.90;72.10
63094;DHT22;49183;51.380;0.098;2022-10-16T10:46:02;13.00;69.80
63094;DHT22;49183;51.380;0.098;2022-10-16T10:49:15;13.10;69.60
63094;DHT22;49183;51.380;0.098;2022-10-16T10:57:10;13.40;69.70
63094;DHT22;49183;51.380;0.098;2022-10-16T10:59:52;13.60;68.40
63094;DHT22;49183;51.380;0.098;2022-10-16T11:05:08;13.60;67.80
63094;DHT22;49183;51.380;0.098;2022-10-16T11:07:57;13.70;67.60
63094;DHT22;49183;51.380;0.098;2022-10-16T11:10:27;13.80;68.20
63094;DHT22;49183;51.380;0.098;2022-10-16T11:13:03;13.90;68.40
63094;DHT22;49183;51.380;0.098;2022-10-16T11:15:35;14.00;68.50
63094;DHT22;49183;51.380;0.098;2022-10-16T11:18:08;14.00;67.70
63094;DHT22;49183;51.380;0.098;2022-10-16T11:20:42;14.10;67.40
63094;DHT22;49183;51.380;0.098;2022-10-16T11:23:27;14.00;66.90
63094;DHT22;49183;51.380;0.098;2022-10-16T11:25:56;13.90;66.50
63094;DHT22;49183;51.380;0.098;2022-10-16T11:28:29;13.80;65.50
63094;DHT22;49183;51.380;0.098;2022-10-16T11:31:02;13.80;65.70
63094;DHT22;49183;51.380;0.098;2022-10-16T11:33:32;13.60;65.20
63094;DHT22;49183;51.380;0.098;2022-10-16T11:36:15;13.50;65.40
63094;DHT22;49183;51.380;0.098;2022-10-16T11:38:55;13.40;65.70
63094;DHT22;49183;51.380;0.098;2022-10-16T11:44:19;13.10;67.00
63094;DHT22;49183;51.380;0.098;2022-10-16T11:46:46;13.00;67.50
63094;DHT22;49183;51.380;0.098;2022-10-16T11:49:27;13.10;68.10
63094;DHT22;49183;51.380;0.098;2022-10-16T11:57:16;13.30;68.20
63094;DHT22;49183;51.380;0.098;2022-10-16T11:59:49;13.40;68.00
63094;DHT22;49183;51.380;0.098;2022-10-16T12:07:41;13.70;68.00
63094;DHT22;49183;51.380;0.098;2022-10-16T12:10:22;13.80;67.80
63094;DHT22;49183;51.380;0.098;2022-10-16T12:12:53;13.90;67.50
63094;DHT22;49183;51.380;0.098;2022-10-16T12:15:26;14.00;67.10
63094;DHT22;49183;51.380;0.098;2022-10-16T12:18:20;14.00;67.10
63094;DHT22;49183;51.380;0.098;2022-10-16T12:20:55;14.10;67.00
63094;DHT22;49183;51.380;0.098;2022-10-16T12:23:26;14.10;66.90
63094;DHT22;49183;51.380;0.098;2022-10-16T12:26:00;14.10;66.90
63094;DHT22;49183;51.380;0.098;2022-10-16T12:28:30;14.10;66.60
63094;DHT22;49183;51.380;0.098;2022-10-16T12:31:02;14.10;66.80
63094;DHT22;49183;51.380;0.098;2022-10-16T12:33:30;14.10;66.70
63094;DHT22;49183;51.380;0.098;2022-10-16T12:35:59;14.10;66.70
63094;DHT22;49183;51.380;0.098;2022-10-16T12:38:37;14.10;66.40
63094;DHT22;49183;51.380;0.098;2022-10-16T12:41:06;14.20;66.40
63094;DHT22;49183;51.380;0.098;2022-10-16T12:43:39;14.30;66.40
63094;DHT22;49183;51.380;0.098;2022-10-16T12:48:37;14.30;65.60
63094;DHT22;49183;51.380;0.098;2022-10-16T12:51:33;14.30;65.50
63094;DHT22;49183;51.380;0.098;2022-10-16T12:54:01;14.30;64.90
63094;DHT22;49183;51.380;0.098;2022-10-16T13:10:04;13.80;66.30
63094;DHT22;49183;51.380;0.098;2022-10-16T13:12:44;13.80;66.40
63094;DHT22;49183;51.380;0.098;2022-10-16T13:15:19;13.80;66.50
63094;DHT22;49183;51.380;0.098;2022-10-16T13:17:52;13.80;66.70
63094;DHT22;49183;51.380;0.098;2022-10-16T13:20:35;13.70;66.90
63094;DHT22;49183;51.380;0.098;2022-10-16T13:25:49;13.80;67.40
63094;DHT22;49183;51.380;0.098;2022-10-16T13:28:21;13.90;67.50
63094;DHT22;49183;51.380;0.098;2022-10-16T13:30:53;14.10;67.30
63094;DHT22;49183;51.380;0.098;2022-10-16T13:35:53;14.50;66.60
63094;DHT22;49183;51.380;0.098;2022-10-16T13:38:22;14.80;66.00
63094;DHT22;49183;51.380;0.098;2022-10-16T13:40:51;14.90;66.00
63094;DHT22;49183;51.380;0.098;2022-10-16T13:43:19;15.00;65.10
63094;DHT22;49183;51.380;0.098;2022-10-16T13:45:54;14.90;64.90
63094;DHT22;49183;51.380;0.098;2022-10-16T13:48:22;14.80;64.80
63094;DHT22;49183;51.380;0.098;2022-10-16T13:53:27;14.50;64.90
63094;DHT22;49183;51.380;0.098;2022-10-16T13:55:56;14.50;64.70
63094;DHT22;49183;51.380;0.098;2022-10-16T13:58:24;14.40;64.70
63094;DHT22;49183;51.380;0.098;2022-10-16T14:03:22;14.30;64.60
63094;DHT22;49183;51.380;0.098;2022-10-16T14:05:51;14.30;65.00
63094;DHT22;49183;51.380;0.098;2022-10-16T14:08:19;14.20;64.90
63094;DHT22;49183;51.380;0.098;2022-10-16T14:10:48;14.20;65.10
63094;DHT22;49183;51.380;0.098;2022-10-16T14:13:17;14.30;65.00
63094;DHT22;49183;51.380;0.098;2022-10-16T14:15:46;14.40;64.00
63094;DHT22;49183;51.380;0.098;2022-10-16T14:18:21;14.40;63.20
63094;DHT22;49183;51.380;0.098;2022-10-16T14:20:50;14.40;62.80
63094;DHT22;49183;51.380;0.098;2022-10-16T14:23:22;14.30;62.90
63094;DHT22;49183;51.380;0.098;2022-10-16T14:25:50;14.20;63.10
63094;DHT22;49183;51.380;0.098;2022-10-16T14:28:18;14.00;63.20
63094;DHT22;49183;51.380;0.098;2022-10-16T14:30:54;13.90;63.60
63094;DHT22;49183;51.380;0.098;2022-10-16T14:33:32;13.90;63.90
63094;DHT22;49183;51.380;0.098;2022-10-16T14:38:31;13.80;64.10
63094;DHT22;49183;51.380;0.098;2022-10-16T14:40:59;13.80;64.30
63094;DHT22;49183;51.380;0.098;2022-10-16T14:43:34;13.80;64.50
63094;DHT22;49183;51.380;0.098;2022-10-16T14:46:05;13.80;64.50
63094;DHT22;49183;51.380;0.098;2022-10-16T14:48:33;13.90;64.40
63094;DHT22;49183;51.380;0.098;2022-10-16T14:51:01;13.80;64.50
63094;DHT22;49183;51.380;0.098;2022-10-16T14:53:28;13.80;64.60
63094;DHT22;49183;51.380;0.098;2022-10-16T14:55:56;13.90;64.70
63094;DHT22;49183;51.380;0.098;2022-10-16T14:58:23;13.90;64.90
63094;DHT22;49183;51.380;0.098;2022-10-16T15:00:51;13.90;64.90
63094;DHT22;49183;51.380;0.098;2022-10-16T15:03:19;13.90;64.70
63094;DHT22;49183;51.380;0.098;2022-10-16T15:05:46;14.00;64.60
63094;DHT22;49183;51.380;0.098;2022-10-16T15:08:14;14.00;64.70
63094;DHT22;49183;51.380;0.098;2022-10-16T15:10:43;14.10;64.60
63094;DHT22;49183;51.380;0.098;2022-10-16T15:13:11;14.10;64.20
63094;DHT22;49183;51.380;0.098;2022-10-16T15:15:43;14.10;64.10
63094;DHT22;49183;51.380;0.098;2022-10-16T15:18:11;14.00;63.90
63094;DHT22;49183;51.380;0.098;2022-10-16T15:20:38;13.90;63.70
63094;DHT22;49183;51.380;0.098;2022-10-16T15:23:10;13.80;63.80
63094;DHT22;49183;51.380;0.098;2022-10-16T15:25:44;13.80;64.10
63094;DHT22;49183;51.380;0.098;2022-10-16T15:28:11;13.80;64.30
63094;DHT22;49183;51.380;0.098;2022-10-16T15:30:40;13.80;64.50
63094;DHT22;49183;51.380;0.098;2022-10-16T15:33:14;13.70;64.40
63094;DHT22;49183;51.380;0.098;2022-10-16T15:35:45;13.70;64.40
63094;DHT22;49183;51.380;0.098;2022-10-16T15:38:13;13.70;63.60
63094;DHT22;49183;51.380;0.098;2022-10-16T15:40:41;13.70;63.70
63094;DHT22;49183;51.380;0.098;2022-10-16T15:43:08;13.70;63.80
63094;DHT22;49183;51.380;0.098;2022-10-16T15:45:36;13.60;63.90
63094;DHT22;49183;51.380;0.098;2022-10-16T15:48:03;13.60;63.90
63094;DHT22;49183;51.380;0.098;2022-10-16T15:50:31;13.50;63.70
63094;DHT22;49183;51.380;0.098;2022-10-16T15:52:59;13.50;63.80
63094;DHT22;49183;51.380;0.098;2022-10-16T15:55:26;13.40;63.90
63094;DHT22;49183;51.380;0.098;2022-10-16T15:57:54;13.40;64.00
63094;DHT22;49183;51.380;0.098;2022-10-16T16:00:21;13.40;63.80
63094;DHT22;49183;51.380;0.098;2022-10-16T16:02:51;13.30;63.90
63094;DHT22;49183;51.380;0.098;2022-10-16T16:05:19;13.30;63.90
63094;DHT22;49183;51.380;0.098;2022-10-16T16:07:47;13.20;63.90
63094;DHT22;49183;51.380;0.098;2022-10-16T16:10:14;13.10;63.90
63094;DHT22;49183;51.380;0.098;2022-10-16T16:12:42;12.90;64.10
63094;DHT22;49183;51.380;0.098;2022-10-16T16:15:09;12.90;64.10
63094;DHT22;49183;51.380;0.098;2022-10-16T16:17:37;12.80;64.30
63094;DHT22;49183;51.380;0.098;2022-10-16T16:20:05;12.80;64.40
63094;DHT22;49183;51.380;0.098;2022-10-16T16:22:32;12.80;64.40
63094;DHT22;49183;51.380;0.098;2022-10-16T16:25:00;12.80;64.50
63094;DHT22;49183;51.380;0.098;2022-10-16T16:27:28;12.80;64.70
63094;DHT22;49183;51.380;0.098;2022-10-16T16:29:57;12.70;64.90
63094;DHT22;49183;51.380;0.098;2022-10-16T16:32:25;12.60;64.90
63094;DHT22;49183;51.380;0.098;2022-10-16T16:34:54;12.60;65.10
63094;DHT22;49183;51.380;0.098;2022-10-16T16:37:22;12.60;65.10
63094;DHT22;49183;51.380;0.098;2022-10-16T16:39:49;12.50;65.30
63094;DHT22;49183;51.380;0.098;2022-10-16T16:42:17;12.50;65.50
63094;DHT22;49183;51.380;0.098;2022-10-16T16:44:44;12.40;65.60
63094;DHT22;49183;51.380;0.098;2022-10-16T16:47:12;12.40;65.70
63094;DHT22;49183;51.380;0.098;2022-10-16T16:49:39;12.30;65.80
63094;DHT22;49183;51.380;0.098;2022-10-16T16:52:07;12.40;66.00
63094;DHT22;49183;51.380;0.098;2022-10-16T16:54:35;12.40;66.10
63094;DHT22;49183;51.380;0.098;2022-10-16T16:57:02;12.30;66.20
63094;DHT22;49183;51.380;0.098;2022-10-16T16:59:31;12.30;66.30
63094;DHT22;49183;51.380;0.098;2022-10-16T17:02:02;12.30;66.50
63094;DHT22;49183;51.380;0.098;2022-10-16T17:04:29;12.30;66.60
63094;DHT22;49183;51.380;0.098;2022-10-16T17:06:57;12.30;66.70
63094;DHT22;49183;51.380;0.098;2022-10-16T17:09:25;12.30;66.80
63094;DHT22;49183;51.380;0.098;2022-10-16T17:11:52;12.30;67.00
63094;DHT22;49183;51.380;0.098;2022-10-16T17:14:20;12.30;67.20
63094;DHT22;49183;51.380;0.098;2022-10-16T17:16:47;12.30;67.30
63094;DHT22;49183;51.380;0.098;2022-10-16T17:19:17;12.30;67.50
63094;DHT22;49183;51.380;0.098;2022-10-16T17:21:47;12.30;67.70
63094;DHT22;49183;51.380;0.098;2022-10-16T17:24:14;12.30;68.00
63094;DHT22;49183;51.380;0.098;2022-10-16T17:26:42;12.30;68.00
63094;DHT22;49183;51.380;0.098;2022-10-16T17:29:11;12.30;68.20
63094;DHT22;49183;51.380;0.098;2022-10-16T17:31:38;12.30;68.20
63094;DHT22;49183;51.380;0.098;2022-10-16T17:34:07;12.30;68.30
63094;DHT22;49183;51.380;0.098;2022-10-16T17:36:35;12.30;68.40
63094;DHT22;49183;51.380;0.098;2022-10-16T17:39:04;12.30;68.50
63094;DHT22;49183;51.380;0.098;2022-10-16T17:41:32;12.30;68.80
63094;DHT22;49183;51.380;0.098;2022-10-16T17:44:00;12.30;69.00
63094;DHT22;49183;51.380;0.098;2022-10-16T17:46:27;12.20;69.30
63094;DHT22;49183;51.380;0.098;2022-10-16T17:48:55;12.30;69.60
63094;DHT22;49183;51.380;0.098;2022-10-16T17:51:27;12.30;69.80
63094;DHT22;49183;51.380;0.098;2022-10-16T17:53:55;12.30;69.90
63094;DHT22;49183;51.380;0.098;2022-10-16T17:56:23;12.20;70.10
63094;DHT22;49183;51.380;0.098;2022-10-16T17:58:52;12.30;70.40
63094;DHT22;49183;51.380;0.098;2022-10-16T18:01:21;12.30;70.50
63094;DHT22;49183;51.380;0.098;2022-10-16T18:03:54;12.30;70.60
63094;DHT22;49183;51.380;0.098;2022-10-16T18:06:22;12.30;70.60
63094;DHT22;49183;51.380;0.098;2022-10-16T18:08:50;12.30;70.80
63094;DHT22;49183;51.380;0.098;2022-10-16T18:11:18;12.30;70.80
63094;DHT22;49183;51.380;0.098;2022-10-16T18:13:46;12.30;71.00
63094;DHT22;49183;51.380;0.098;2022-10-16T18:16:14;12.30;71.20
63094;DHT22;49183;51.380;0.098;2022-10-16T18:18:42;12.30;71.40
63094;DHT22;49183;51.380;0.098;2022-10-16T18:21:12;12.30;71.70
63094;DHT22;49183;51.380;0.098;2022-10-16T18:23:39;12.30;71.80
63094;DHT22;49183;51.380;0.098;2022-10-16T18:26:07;12.30;72.10
63094;DHT22;49183;51.380;0.098;2022-10-16T18:28:35;12.30;72.30
63094;DHT22;49183;51.380;0.098;2022-10-16T18:31:04;12.30;72.50
63094;DHT22;49183;51.380;0.098;2022-10-16T18:33:32;12.30;72.90
63094;DHT22;49183;51.380;0.098;2022-10-16T18:36:03;12.30;72.90
63094;DHT22;49183;51.380;0.098;2022-10-16T18:38:31;12.40;72.90
63094;DHT22;49183;51.380;0.098;2022-10-16T18:40:59;12.50;73.00
63094;DHT22;49183;51.380;0.098;2022-10-16T18:43:28;12.60;73.20
63094;DHT22;49183;51.380;0.098;2022-10-16T18:46:00;12.60;73.20
63094;DHT22;49183;51.380;0.098;2022-10-16T18:48:29;12.60;73.40
63094;DHT22;49183;51.380;0.098;2022-10-16T18:51:14;12.60;73.50
63094;DHT22;49183;51.380;0.098;2022-10-16T18:53:43;12.60;73.60
63094;DHT22;49183;51.380;0.098;2022-10-16T18:56:11;12.60;73.60
63094;DHT22;49183;51.380;0.098;2022-10-16T18:58:42;12.60;73.60
63094;DHT22;49183;51.380;0.098;2022-10-16T19:01:11;12.60;73.80
63094;DHT22;49183;51.380;0.098;2022-10-16T19:03:43;12.60;74.00
63094;DHT22;49183;51.380;0.098;2022-10-16T19:06:12;12.60;74.10
63094;DHT22;49183;51.380;0.098;2022-10-16T19:08:40;12.60;74.30
63094;DHT22;49183;51.380;0.098;2022-10-16T19:11:09;12.60;74.60
63094;DHT22;49183;51.380;0.098;2022-10-16T19:13:37;12.60;74.90
63094;DHT22;49183;51.380;0.098;2022-10-16T19:16:08;12.60;75.00
63094;DHT22;49183;51.380;0.098;2022-10-16T19:18:47;12.60;75.00
63094;DHT22;49183;51.380;0.098;2022-10-16T19:21:16;12.60;75.10
63094;DHT22;49183;51.380;0.098;2022-10-16T19:23:44;12.60;75.10
63094;DHT22;49183;51.380;0.098;2022-10-16T19:26:16;12.60;75.20
63094;DHT22;49183;51.380;0.098;2022-10-16T19:28:44;12.60;75.10
63094;DHT22;49183;51.380;0.098;2022-10-16T19:31:16;12.70;75.20
63094;DHT22;49183;51.380;0.098;2022-10-16T19:33:43;12.70;75.30
63094;DHT22;49183;51.380;0.098;2022-10-16T19:36:12;12.70;75.30
63094;DHT22;49183;51.380;0.098;2022-10-16T19:38:41;12.70;75.40
63094;DHT22;49183;51.380;0.098;2022-10-16T19:41:09;12.70;75.60
63094;DHT22;49183;51.380;0.098;2022-10-16T19:43:37;12.70;75.80
63094;DHT22;49183;51.380;0.098;2022-10-16T19:46:07;12.70;76.10
63094;DHT22;49183;51.380;0.098;2022-10-16T19:48:35;12.70;76.50
63094;DHT22;49183;51.380;0.098;2022-10-16T19:51:03;12.60;76.80
63094;DHT22;49183;51.380;0.098;2022-10-16T19:53:33;12.70;77.20
63094;DHT22;49183;51.380;0.098;2022-10-16T19:56:04;12.70;77.80
63094;DHT22;49183;51.380;0.098;2022-10-16T19:58:37;12.60;78.30
63094;DHT22;49183;51.380;0.098;2022-10-16T20:01:05;12.60;79.30
63094;DHT22;49183;51.380;0.098;2022-10-16T20:03:33;12.50;79.90
63094;DHT22;49183;51.380;0.098;2022-10-16T20:06:07;12.40;80.30
63094;DHT22;49183;51.380;0.098;2022-10-16T20:08:37;12.40;80.50
63094;DHT22;49183;51.380;0.098;2022-10-16T20:11:05;12.40;81.00